createdAt,value
2023-01-19T00:02:27.204Z,18.37
2023-01-19T00:07:30.153Z,16.00
2023-01-19T00:12:31.922Z,15.73
2023-01-19T00:17:33.892Z,16.27
2023-01-19T00:22:35.671Z,15.30
2023-01-19T00:27:37.601Z,15.53
2023-01-19T00:32:39.567Z,16.13
2023-01-19T00:37:41.502Z,20.27
2023-01-19T00:42:48.258Z,14.83
2023-01-19T00:47:56.899Z,14.57
2023-01-19T00:53:03.200Z,16.30
2023-01-19T00:58:06.517Z,13.20
2023-01-19T01:03:08.566Z,16.57
2023-01-19T01:08:10.539Z,18.47
2023-01-19T01:13:21.629Z,18.87
2023-01-19T01:18:28.331Z,11.87
2023-01-19T01:23:30.488Z,13.57
2023-01-19T01:28:32.426Z,18.33
2023-01-19T01:33:40.070Z,15.07
2023-01-19T01:38:43.251Z,15.43
2023-01-19T01:43:58.499Z,15.50
2023-01-19T01:49:15.132Z,18.50
2023-01-19T01:54:22.932Z,16.33
2023-01-19T01:59:39.105Z,17.87
2023-01-19T02:04:47.109Z,15.03
2023-01-19T02:10:07.765Z,17.50
2023-01-19T02:15:20.536Z,15.30
2023-01-19T02:20:27.624Z,18.07
2023-01-19T02:25:29.617Z,17.03
2023-01-19T02:30:32.894Z,20.77
2023-01-19T02:35:39.559Z,16.13
2023-01-19T02:40:45.825Z,19.67
2023-01-19T02:45:48.183Z,16.80
2023-01-19T02:50:53.665Z,20.77
2023-01-19T02:56:15.811Z,15.40
2023-01-19T03:02:17.635Z,15.80
2023-01-19T03:07:34.708Z,15.80
2023-01-19T03:13:04.353Z,16.33
2023-01-19T03:18:09.473Z,16.80
2023-01-19T03:23:14.106Z,20.13
2023-01-19T03:28:20.077Z,21.67
2023-01-19T03:33:29.713Z,23.13
2023-01-19T03:38:35.929Z,17.60
2023-01-19T03:43:40.113Z,13.70
2023-01-19T03:48:42.189Z,19.73
2023-01-19T03:53:44.013Z,18.30
2023-01-19T03:58:46.481Z,15.23
2023-01-19T04:03:50.436Z,13.40
2023-01-19T04:08:52.395Z,16.73
2023-01-19T04:14:00.306Z,17.93
2023-01-19T04:19:04.150Z,17.87
2023-01-19T04:24:07.073Z,16.57
2023-01-19T04:29:09.316Z,18.00
2023-01-19T04:34:11.159Z,21.43
2023-01-19T04:39:13.042Z,17.80
2023-01-19T04:44:14.849Z,19.83
2023-01-19T04:49:16.809Z,21.13
2023-01-19T04:54:18.590Z,18.23
2023-01-19T04:59:20.443Z,18.40
2023-01-19T05:04:22.493Z,22.27
2023-01-19T05:09:24.385Z,22.13
2023-01-19T05:14:26.308Z,19.33
2023-01-19T05:19:28.308Z,22.97
2023-01-19T05:24:30.746Z,24.00
2023-01-19T05:29:32.883Z,25.90
2023-01-19T05:34:34.687Z,29.47
2023-01-19T05:39:36.657Z,28.47
2023-01-19T05:44:38.632Z,26.47
2023-01-19T05:49:40.608Z,24.67
2023-01-19T05:54:42.588Z,24.63
2023-01-19T05:59:44.917Z,29.90
2023-01-19T06:04:49.105Z,27.23
2023-01-19T06:09:53.488Z,26.07
2023-01-19T06:14:56.482Z,27.20
2023-01-19T06:19:58.376Z,23.67
2023-01-19T06:25:00.546Z,25.40
2023-01-19T06:30:04.463Z,23.30
2023-01-19T06:35:07.871Z,24.00
2023-01-19T06:40:10.932Z,25.97
2023-01-19T06:45:13.396Z,28.97
2023-01-19T06:50:16.030Z,26.07
2023-01-19T06:55:17.849Z,21.80
2023-01-19T07:00:22.601Z,25.57
2023-01-19T07:05:24.459Z,28.23
2023-01-19T07:10:26.483Z,28.30
2023-01-19T07:15:48.425Z,27.67
2023-01-19T07:20:50.194Z,24.87
2023-01-19T07:25:51.967Z,22.97
2023-01-19T07:30:55.440Z,27.97
2023-01-19T07:35:57.482Z,25.60
2023-01-19T07:41:04.273Z,28.53
2023-01-19T07:46:07.921Z,26.60
2023-01-19T07:51:13.049Z,33.37
2023-01-19T07:56:15.021Z,29.83
2023-01-19T08:01:16.983Z,26.00
2023-01-19T08:06:24.406Z,34.53
2023-01-19T08:11:26.277Z,31.67
2023-01-19T08:16:28.291Z,24.67
2023-01-19T08:21:30.622Z,31.13
2023-01-19T08:26:34.829Z,29.53
2023-01-19T08:31:37.727Z,25.00
2023-01-19T08:36:39.687Z,30.37
2023-01-19T08:41:41.620Z,26.17
2023-01-19T08:46:43.622Z,29.90
2023-01-19T08:51:49.093Z,41.03
2023-01-19T08:56:51.061Z,31.50
2023-01-19T09:01:53.078Z,32.00
2023-01-19T09:06:55.077Z,29.30
2023-01-19T09:11:56.968Z,27.83
2023-01-19T09:16:59.221Z,26.43
2023-01-19T09:22:01.455Z,40.00
2023-01-19T09:27:03.379Z,36.23
2023-01-19T09:32:05.497Z,36.67
2023-01-19T09:37:08.840Z,35.10
2023-01-19T09:42:19.719Z,33.50
2023-01-19T09:47:30.595Z,34.63
2023-01-19T09:52:37.505Z,35.93
2023-01-19T09:57:39.443Z,29.53
2023-01-19T10:02:50.307Z,35.43
2023-01-19T10:08:11.960Z,31.90
2023-01-19T10:13:43.782Z,25.60
2023-01-19T10:18:48.246Z,28.03
2023-01-19T10:23:56.311Z,31.60
2023-01-19T10:29:07.849Z,28.47
2023-01-19T10:34:21.589Z,32.47
2023-01-19T10:39:29.201Z,27.23
2023-01-19T10:44:37.337Z,30.60
2023-01-19T10:49:42.765Z,29.37
2023-01-19T10:54:45.092Z,36.47
2023-01-19T10:59:52.457Z,25.27
2023-01-19T11:05:24.743Z,26.23
2023-01-19T11:10:30.324Z,29.27
2023-01-19T11:15:36.193Z,27.47
2023-01-19T11:20:53.431Z,25.03
2023-01-19T11:25:58.731Z,23.63
2023-01-19T11:31:02.853Z,27.20
2023-01-19T11:36:07.813Z,27.70
2023-01-19T11:41:31.922Z,25.17
2023-01-19T11:46:35.158Z,25.83
2023-01-19T11:51:50.962Z,27.23
2023-01-19T11:56:54.520Z,21.97
2023-01-19T12:01:59.727Z,27.33
2023-01-19T12:07:07.543Z,26.30
2023-01-19T12:12:40.497Z,35.07
2023-01-19T12:17:47.594Z,24.37
2023-01-19T12:23:13.806Z,24.10
2023-01-19T12:28:18.590Z,28.47
2023-01-19T12:33:26.511Z,26.80
2023-01-19T12:38:34.664Z,25.77
2023-01-19T12:43:36.727Z,23.97
2023-01-19T12:48:39.288Z,18.53
2023-01-19T12:53:54.310Z,22.40
2023-01-19T12:58:56.320Z,20.87
2023-01-19T13:04:03.796Z,26.50
2023-01-19T13:09:38.466Z,30.87
2023-01-19T13:14:42.369Z,33.10
2023-01-19T13:19:53.818Z,20.43
2023-01-19T13:25:08.506Z,19.90
2023-01-19T13:30:17.426Z,22.40
2023-01-19T13:35:20.809Z,23.53
2023-01-19T13:40:27.570Z,23.47
2023-01-19T13:45:35.296Z,16.47
2023-01-19T13:50:39.232Z,18.80
2023-01-19T13:55:41.267Z,23.37
2023-01-19T14:00:45.874Z,19.10
2023-01-19T14:05:51.795Z,18.17
2023-01-19T14:10:54.975Z,24.20
2023-01-19T14:16:17.363Z,17.37
2023-01-19T14:21:19.767Z,20.30
2023-01-19T14:26:37.320Z,18.40
2023-01-19T14:31:49.843Z,17.77
2023-01-19T14:36:52.075Z,18.73
2023-01-19T14:41:56.911Z,22.07
2023-01-19T14:46:59.619Z,15.13
2023-01-19T14:52:21.467Z,20.23
2023-01-19T14:57:23.398Z,14.77
2023-01-19T15:02:25.311Z,20.37
2023-01-19T15:07:28.376Z,18.90
2023-01-19T15:12:30.399Z,17.83
2023-01-19T15:17:32.794Z,17.83
2023-01-19T15:22:34.540Z,16.60
2023-01-19T15:27:36.501Z,15.00
2023-01-19T15:32:43.597Z,15.00
2023-01-19T15:37:46.066Z,18.47
2023-01-19T15:42:47.833Z,16.70
2023-01-19T15:47:49.774Z,18.60
2023-01-19T15:52:51.745Z,22.13
2023-01-19T15:57:53.869Z,18.30
2023-01-19T16:02:55.981Z,23.23
2023-01-19T16:07:58.762Z,16.20
2023-01-19T16:13:01.624Z,15.60
2023-01-19T16:18:05.046Z,20.03
2023-01-19T16:23:14.879Z,21.50
2023-01-19T16:28:17.105Z,17.00
2023-01-19T16:33:19.180Z,14.63
2023-01-19T16:38:23.273Z,18.80
2023-01-19T16:43:26.900Z,18.23
2023-01-19T16:48:32.206Z,15.70
2023-01-19T16:53:35.218Z,19.80
2023-01-19T16:58:38.356Z,18.80
2023-01-19T17:03:40.942Z,23.10
2023-01-19T17:08:42.945Z,19.73
2023-01-19T17:13:45.201Z,19.47
2023-01-19T17:18:47.243Z,19.70
2023-01-19T17:23:51.637Z,18.20
2023-01-19T17:29:05.431Z,24.03
2023-01-19T17:34:08.659Z,18.27
2023-01-19T17:39:25.648Z,18.03
2023-01-19T17:44:27.504Z,19.87
2023-01-19T17:49:29.603Z,14.47
2023-01-19T17:54:31.546Z,18.57
2023-01-19T17:59:33.481Z,18.23
2023-01-19T18:04:38.241Z,21.43
2023-01-19T18:09:40.128Z,20.47
2023-01-19T18:14:42.215Z,25.83
2023-01-19T18:19:44.396Z,25.03
2023-01-19T18:24:47.057Z,21.47
2023-01-19T18:29:48.968Z,23.73
2023-01-19T18:34:53.884Z,20.13
2023-01-19T18:39:59.563Z,24.07
2023-01-19T18:45:01.620Z,20.47
2023-01-19T18:50:04.353Z,25.60
2023-01-19T18:55:06.867Z,22.40
2023-01-19T19:00:09.402Z,22.53
2023-01-19T19:05:11.361Z,22.20
2023-01-19T19:10:13.407Z,23.60
2023-01-19T19:15:15.549Z,23.17
2023-01-19T19:20:17.742Z,26.07
2023-01-19T19:25:19.754Z,27.20
2023-01-19T19:30:21.707Z,25.47
2023-01-19T19:35:24.166Z,25.53
2023-01-19T19:40:27.561Z,24.50
2023-01-19T19:45:30.357Z,24.37
2023-01-19T19:50:34.231Z,23.23
2023-01-19T19:55:36.240Z,22.67
2023-01-19T20:00:39.131Z,25.07
2023-01-19T20:05:41.161Z,22.17
2023-01-19T20:10:43.172Z,26.80
2023-01-19T20:15:45.385Z,30.60
2023-01-19T20:20:47.329Z,25.90
2023-01-19T20:25:49.094Z,29.83
2023-01-19T20:30:51.189Z,24.53
2023-01-19T20:35:53.262Z,34.77
2023-01-19T20:40:55.088Z,32.37
2023-01-19T20:45:57.559Z,32.90
2023-01-19T20:51:10.868Z,34.60
2023-01-19T20:56:14.405Z,27.20
2023-01-19T21:01:18.040Z,31.43
2023-01-19T21:06:21.227Z,33.47
2023-01-19T21:11:24.029Z,32.20
2023-01-19T21:16:28.573Z,35.13
2023-01-19T21:21:31.859Z,36.47
2023-01-19T21:26:34.092Z,31.40
2023-01-19T21:31:35.953Z,36.40
2023-01-19T21:36:38.006Z,39.03
2023-01-19T21:41:42.272Z,36.67
2023-01-19T21:46:44.329Z,36.93
2023-01-19T21:51:47.967Z,37.97
2023-01-19T21:56:50.116Z,40.47
2023-01-19T22:01:52.012Z,37.53
2023-01-19T22:06:53.988Z,37.47
2023-01-19T22:11:55.878Z,39.23
2023-01-19T22:16:57.682Z,39.53
2023-01-19T22:21:59.741Z,31.03
2023-01-19T22:27:01.698Z,36.27
2023-01-19T22:32:03.694Z,32.10
2023-01-19T22:37:06.367Z,27.93
2023-01-19T22:42:08.297Z,27.97
2023-01-19T22:47:10.269Z,38.63
2023-01-19T22:52:12.076Z,29.07
2023-01-19T22:57:13.866Z,36.13
2023-01-19T23:02:15.953Z,31.00
2023-01-19T23:07:17.752Z,38.80
2023-01-19T23:12:19.579Z,34.50
2023-01-19T23:17:21.543Z,31.23
2023-01-19T23:22:23.546Z,30.47
2023-01-19T23:27:25.350Z,27.27
2023-01-19T23:32:27.261Z,26.47
2023-01-19T23:37:29.159Z,26.87
2023-01-19T23:42:30.959Z,24.43
2023-01-19T23:47:36.427Z,26.60
2023-01-19T23:52:38.645Z,29.63
2023-01-19T23:57:40.556Z,24.23
